sensor_id;sensor_type;location;lat;lon;timestamp;pressure;altitude;pressure_sealevel;temperature;humidity
4745;BME280;2386;42.138;24.746;2023-09-08T00:01:21;100009.81;;;23.67;74.21
4745;BME280;2386;42.138;24.746;2023-09-08T00:03:47;100025.59;;;23.80;74.95
4745;BME280;2386;42.138;24.746;2023-09-08T00:06:13;100023.94;;;23.79;75.76
4745;BME280;2386;42.138;24.746;2023-09-08T00:08:38;100025.59;;;23.80;75.29
4745;BME280;2386;42.138;24.746;2023-09-08T00:11:04;100006.75;;;23.68;76.07
4745;BME280;2386;42.138;24.746;2023-09-08T00:13:30;100008.88;;;23.57;77.34
4745;BME280;2386;42.138;24.746;2023-09-08T00:15:55;100025.63;;;23.66;78.01
4745;BME280;2386;42.138;24.746;2023-09-08T00:18:21;100018.31;;;23.56;78.96
4745;BME280;2386;42.138;24.746;2023-09-08T00:20:46;100029.00;;;23.63;79.63
4745;BME280;2386;42.138;24.746;2023-09-08T00:23:12;100015.31;;;23.53;80.51
4745;BME280;2386;42.138;24.746;2023-09-08T00:25:37;100023.34;;;23.54;82.46
4745;BME280;2386;42.138;24.746;2023-09-08T00:28:03;100039.88;;;23.59;84.95
4745;BME280;2386;42.138;24.746;2023-09-08T00:30:29;100021.34;;;23.41;86.69
4745;BME280;2386;42.138;24.746;2023-09-08T00:32:54;100027.31;;;23.48;87.65
4745;BME280;2386;42.138;24.746;2023-09-08T00:35:20;100003.91;;;23.27;89.49
4745;BME280;2386;42.138;24.746;2023-09-08T00:37:45;100014.47;;;23.25;91.37
4745;BME280;2386;42.138;24.746;2023-09-08T00:40:11;100033.13;;;23.33;92.82
4745;BME280;2386;42.138;24.746;2023-09-08T00:42:36;100027.91;;;23.32;94.43
4745;BME280;2386;42.138;24.746;2023-09-08T00:45:02;100022.56;;;23.21;96.90
4745;BME280;2386;42.138;24.746;2023-09-08T00:47:29;100030.84;;;23.21;98.77
4745;BME280;2386;42.138;24.746;2023-09-08T00:53:17;100013.19;;;23.04;100.00
4745;BME280;2386;42.138;24.746;2023-09-08T00:55:42;100026.94;;;23.09;100.00
4745;BME280;2386;42.138;24.746;2023-09-08T00:58:10;100015.88;;;23.09;100.00
4745;BME280;2386;42.138;24.746;2023-09-08T01:00:36;100027.16;;;23.12;100.00
4745;BME280;2386;42.138;24.746;2023-09-08T01:03:04;100023.03;;;23.10;100.00
4745;BME280;2386;42.138;24.746;2023-09-08T01:05:30;100019.97;;;22.98;100.00
4745;BME280;2386;42.138;24.746;2023-09-08T01:07:57;100001.72;;;22.97;100.00
4745;BME280;2386;42.138;24.746;2023-09-08T01:10:24;100005.31;;;22.97;100.00
4745;BME280;2386;42.138;24.746;2023-09-08T01:12:50;100004.69;;;23.00;100.00
4745;BME280;2386;42.138;24.746;2023-09-08T01:15:15;99998.13;;;22.96;100.00
4745;BME280;2386;42.138;24.746;2023-09-08T01:17:41;100007.66;;;23.04;100.00
4745;BME280;2386;42.138;24.746;2023-09-08T01:20:22;100000.91;;;22.96;100.00
4745;BME280;2386;42.138;24.746;2023-09-08T01:27:52;99991.13;;;22.85;100.00
4745;BME280;2386;42.138;24.746;2023-09-08T01:30:19;99995.31;;;22.82;100.00
4745;BME280;2386;42.138;24.746;2023-09-08T01:32:46;99996.44;;;22.81;100.00
4745;BME280;2386;42.138;24.746;2023-09-08T01:35:12;99993.22;;;22.74;100.00
4745;BME280;2386;42.138;24.746;2023-09-08T01:37:44;99993.06;;;22.66;100.00
4745;BME280;2386;42.138;24.746;2023-09-08T01:40:10;99984.84;;;22.60;100.00
4745;BME280;2386;42.138;24.746;2023-09-08T01:42:37;99989.50;;;22.65;100.00
4745;BME280;2386;42.138;24.746;2023-09-08T01:45:04;99992.16;;;22.70;100.00
4745;BME280;2386;42.138;24.746;2023-09-08T01:47:30;99990.59;;;22.64;100.00
4745;BME280;2386;42.138;24.746;2023-09-08T01:49:58;100007.03;;;22.74;100.00
4745;BME280;2386;42.138;24.746;2023-09-08T01:52:24;100004.88;;;22.71;100.00
4745;BME280;2386;42.138;24.746;2023-09-08T01:54:49;100001.59;;;22.69;100.00
4745;BME280;2386;42.138;24.746;2023-09-08T01:57:15;99996.44;;;22.62;100.00
4745;BME280;2386;42.138;24.746;2023-09-08T01:59:41;100004.97;;;22.66;100.00
4745;BME280;2386;42.138;24.746;2023-09-08T02:02:06;99986.88;;;22.55;100.00
4745;BME280;2386;42.138;24.746;2023-09-08T02:04:32;100004.91;;;22.52;100.00
4745;BME280;2386;42.138;24.746;2023-09-08T02:06:58;99994.00;;;22.42;100.00
4745;BME280;2386;42.138;24.746;2023-09-08T02:09:33;99985.47;;;22.39;100.00
4745;BME280;2386;42.138;24.746;2023-09-08T02:12:00;100007.75;;;22.47;100.00
4745;BME280;2386;42.138;24.746;2023-09-08T02:14:25;100009.69;;;22.47;100.00
4745;BME280;2386;42.138;24.746;2023-09-08T02:16:51;100003.72;;;22.40;100.00
4745;BME280;2386;42.138;24.746;2023-09-08T02:19:17;99992.66;;;22.40;100.00
4745;BME280;2386;42.138;24.746;2023-09-08T02:21:43;99986.78;;;22.27;100.00
4745;BME280;2386;42.138;24.746;2023-09-08T02:24:08;99998.78;;;22.37;100.00
4745;BME280;2386;42.138;24.746;2023-09-08T02:26:33;99980.88;;;22.15;100.00
4745;BME280;2386;42.138;24.746;2023-09-08T02:29:00;99973.94;;;22.18;100.00
4745;BME280;2386;42.138;24.746;2023-09-08T02:31:28;99997.91;;;22.22;100.00
4745;BME280;2386;42.138;24.746;2023-09-08T02:33:54;99987.81;;;22.13;100.00
4745;BME280;2386;42.138;24.746;2023-09-08T02:36:19;99990.16;;;22.01;100.00
4745;BME280;2386;42.138;24.746;2023-09-08T02:38:51;99994.41;;;21.93;100.00
4745;BME280;2386;42.138;24.746;2023-09-08T02:41:16;99978.09;;;21.73;100.00
4745;BME280;2386;42.138;24.746;2023-09-08T02:43:50;99979.09;;;21.82;100.00
4745;BME280;2386;42.138;24.746;2023-09-08T02:46:15;99961.63;;;21.86;100.00
4745;BME280;2386;42.138;24.746;2023-09-08T02:48:41;99991.94;;;21.91;100.00
4745;BME280;2386;42.138;24.746;2023-09-08T02:51:07;99976.19;;;21.92;100.00
4745;BME280;2386;42.138;24.746;2023-09-08T02:53:33;99991.13;;;21.91;100.00
4745;BME280;2386;42.138;24.746;2023-09-08T02:55:59;99969.16;;;21.81;100.00
4745;BME280;2386;42.138;24.746;2023-09-08T02:58:25;99979.84;;;21.87;100.00
4745;BME280;2386;42.138;24.746;2023-09-08T03:00:51;99987.09;;;21.83;100.00
4745;BME280;2386;42.138;24.746;2023-09-08T03:03:18;99969.28;;;21.71;100.00
4745;BME280;2386;42.138;24.746;2023-09-08T03:05:43;99970.72;;;21.68;100.00
4745;BME280;2386;42.138;24.746;2023-09-08T03:08:09;99974.16;;;21.79;100.00
4745;BME280;2386;42.138;24.746;2023-09-08T03:10:34;99964.38;;;21.68;100.00
4745;BME280;2386;42.138;24.746;2023-09-08T03:13:01;99996.78;;;21.81;100.00
4745;BME280;2386;42.138;24.746;2023-09-08T03:15:27;99980.47;;;21.60;100.00
4745;BME280;2386;42.138;24.746;2023-09-08T03:17:57;99990.63;;;21.65;100.00
4745;BME280;2386;42.138;24.746;2023-09-08T03:20:26;99995.25;;;21.70;100.00
4745;BME280;2386;42.138;24.746;2023-09-08T03:22:54;99980.47;;;21.60;100.00
4745;BME280;2386;42.138;24.746;2023-09-08T03:25:19;99999.09;;;21.74;100.00
4745;BME280;2386;42.138;24.746;2023-09-08T03:27:45;99992.34;;;21.61;100.00
4745;BME280;2386;42.138;24.746;2023-09-08T03:30:11;99986.53;;;21.62;100.00
4745;BME280;2386;42.138;24.746;2023-09-08T03:32:37;99993.03;;;21.72;100.00
4745;BME280;2386;42.138;24.746;2023-09-08T03:35:04;99996.50;;;21.82;100.00
4745;BME280;2386;42.138;24.746;2023-09-08T03:37:33;99991.25;;;21.81;100.00
4745;BME280;2386;42.138;24.746;2023-09-08T03:39:59;99998.38;;;21.87;100.00
4745;BME280;2386;42.138;24.746;2023-09-08T03:42:24;99986.03;;;21.79;100.00
4745;BME280;2386;42.138;24.746;2023-09-08T03:44:49;99989.03;;;21.83;100.00
4745;BME280;2386;42.138;24.746;2023-09-08T03:47:15;99984.69;;;21.77;100.00
4745;BME280;2386;42.138;24.746;2023-09-08T03:49:40;99998.56;;;21.72;100.00
4745;BME280;2386;42.138;24.746;2023-09-08T03:52:05;99980.56;;;21.74;100.00
4745;BME280;2386;42.138;24.746;2023-09-08T03:54:32;99990.66;;;21.84;100.00
4745;BME280;2386;42.138;24.746;2023-09-08T03:56:57;99996.41;;;21.87;100.00
4745;BME280;2386;42.138;24.746;2023-09-08T03:59:23;99987.31;;;21.87;100.00
4745;BME280;2386;42.138;24.746;2023-09-08T04:01:48;99995.91;;;21.85;100.00
4745;BME280;2386;42.138;24.746;2023-09-08T04:04:15;99986.91;;;21.75;100.00
4745;BME280;2386;42.138;24.746;2023-09-08T04:06:41;100006.19;;;21.80;100.00
4745;BME280;2386;42.138;24.746;2023-09-08T04:09:06;100003.94;;;21.82;100.00
4745;BME280;2386;42.138;24.746;2023-09-08T04:11:32;99998.44;;;21.82;100.00
4745;BME280;2386;42.138;24.746;2023-09-08T04:13:57;100004.53;;;21.79;100.00
4745;BME280;2386;42.138;24.746;2023-09-08T04:16:23;100002.84;;;21.83;100.00
4745;BME280;2386;42.138;24.746;2023-09-08T04:18:48;100012.75;;;21.84;100.00
4745;BME280;2386;42.138;24.746;2023-09-08T04:21:14;100010.81;;;21.84;100.00
4745;BME280;2386;42.138;24.746;2023-09-08T04:23:39;100010.00;;;21.84;100.00
4745;BME280;2386;42.138;24.746;2023-09-08T04:26:04;100005.38;;;21.79;100.00
4745;BME280;2386;42.138;24.746;2023-09-08T04:28:30;100005.81;;;21.86;100.00
4745;BME280;2386;42.138;24.746;2023-09-08T04:30:55;100012.69;;;21.89;100.00
4745;BME280;2386;42.138;24.746;2023-09-08T04:33:20;100020.84;;;21.99;100.00
4745;BME280;2386;42.138;24.746;2023-09-08T04:35:46;100017.03;;;21.95;100.00
4745;BME280;2386;42.138;24.746;2023-09-08T04:38:11;100023.63;;;21.99;100.00
4745;BME280;2386;42.138;24.746;2023-09-08T04:40:40;100033.00;;;22.03;100.00
4745;BME280;2386;42.138;24.746;2023-09-08T04:43:06;100027.81;;;21.96;100.00
4745;BME280;2386;42.138;24.746;2023-09-08T04:45:31;100033.09;;;21.93;100.00
4745;BME280;2386;42.138;24.746;2023-09-08T04:47:56;100026.44;;;21.94;100.00
4745;BME280;2386;42.138;24.746;2023-09-08T04:53:43;100029.41;;;22.03;100.00
4745;BME280;2386;42.138;24.746;2023-09-08T04:56:09;100030.75;;;22.05;100.00
4745;BME280;2386;42.138;24.746;2023-09-08T04:58:34;100027.34;;;22.13;100.00
4745;BME280;2386;42.138;24.746;2023-09-08T05:00:59;100024.03;;;22.11;100.00
4745;BME280;2386;42.138;24.746;2023-09-08T05:03:25;100028.16;;;22.14;100.00
4745;BME280;2386;42.138;24.746;2023-09-08T05:05:51;100029.97;;;22.23;100.00
4745;BME280;2386;42.138;24.746;2023-09-08T05:08:16;100030.09;;;22.32;100.00
4745;BME280;2386;42.138;24.746;2023-09-08T05:10:44;100035.31;;;22.34;100.00
4745;BME280;2386;42.138;24.746;2023-09-08T05:13:09;100032.25;;;22.35;100.00
4745;BME280;2386;42.138;24.746;2023-09-08T05:15:35;100034.03;;;22.45;100.00
4745;BME280;2386;42.138;24.746;2023-09-08T05:18:00;100037.56;;;22.50;100.00
4745;BME280;2386;42.138;24.746;2023-09-08T05:20:26;100050.63;;;22.45;100.00
4745;BME280;2386;42.138;24.746;2023-09-08T05:22:51;100039.06;;;22.43;100.00
4745;BME280;2386;42.138;24.746;2023-09-08T05:25:17;100044.06;;;22.59;100.00
4745;BME280;2386;42.138;24.746;2023-09-08T05:27:42;100050.84;;;22.48;100.00
4745;BME280;2386;42.138;24.746;2023-09-08T05:30:08;100049.66;;;22.54;100.00
4745;BME280;2386;42.138;24.746;2023-09-08T05:32:34;100044.88;;;22.60;100.00
4745;BME280;2386;42.138;24.746;2023-09-08T05:38:21;100045.84;;;22.69;100.00
4745;BME280;2386;42.138;24.746;2023-09-08T05:40:46;100052.19;;;22.70;100.00
4745;BME280;2386;42.138;24.746;2023-09-08T05:43:11;100058.78;;;22.74;100.00
4745;BME280;2386;42.138;24.746;2023-09-08T05:45:37;100052.41;;;22.73;100.00
4745;BME280;2386;42.138;24.746;2023-09-08T05:48:02;100059.00;;;22.58;100.00
4745;BME280;2386;42.138;24.746;2023-09-08T05:50:28;100056.91;;;22.69;100.00
4745;BME280;2386;42.138;24.746;2023-09-08T05:52:53;100064.97;;;22.66;100.00
4745;BME280;2386;42.138;24.746;2023-09-08T05:55:18;100061.25;;;22.75;100.00
4745;BME280;2386;42.138;24.746;2023-09-08T05:57:44;100063.03;;;22.66;100.00
4745;BME280;2386;42.138;24.746;2023-09-08T06:00:09;100061.16;;;22.61;100.00
4745;BME280;2386;42.138;24.746;2023-09-08T06:02:35;100072.91;;;22.53;100.00
4745;BME280;2386;42.138;24.746;2023-09-08T06:05:00;100079.19;;;22.59;100.00
4745;BME280;2386;42.138;24.746;2023-09-08T06:07:26;100070.06;;;22.58;100.00
4745;BME280;2386;42.138;24.746;2023-09-08T06:09:51;100060.34;;;22.61;100.00
4745;BME280;2386;42.138;24.746;2023-09-08T06:12:17;100078.66;;;22.76;100.00
4745;BME280;2386;42.138;24.746;2023-09-08T06:17:40;100071.13;;;22.81;99.67
4745;BME280;2386;42.138;24.746;2023-09-08T06:20:06;100065.44;;;22.91;98.42
4745;BME280;2386;42.138;24.746;2023-09-08T06:22:32;100080.03;;;22.97;96.80
4745;BME280;2386;42.138;24.746;2023-09-08T06:24:57;100084.19;;;22.76;97.57
4745;BME280;2386;42.138;24.746;2023-09-08T06:27:22;100083.69;;;22.92;98.48
4745;BME280;2386;42.138;24.746;2023-09-08T06:29:48;100093.97;;;23.06;98.33
4745;BME280;2386;42.138;24.746;2023-09-08T06:32:13;100092.78;;;23.25;100.00
4745;BME280;2386;42.138;24.746;2023-09-08T06:34:38;100091.84;;;23.49;99.99
4745;BME280;2386;42.138;24.746;2023-09-08T06:37:04;100097.44;;;23.63;94.56
4745;BME280;2386;42.138;24.746;2023-09-08T06:39:29;100093.13;;;23.70;93.35
4745;BME280;2386;42.138;24.746;2023-09-08T06:41:54;100089.31;;;23.80;92.97
4745;BME280;2386;42.138;24.746;2023-09-08T06:44:20;100097.75;;;23.88;91.81
4745;BME280;2386;42.138;24.746;2023-09-08T06:46:46;100093.72;;;24.08;93.32
4745;BME280;2386;42.138;24.746;2023-09-08T06:49:11;100096.19;;;24.23;89.26
4745;BME280;2386;42.138;24.746;2023-09-08T06:51:37;100098.88;;;24.42;88.27
4745;BME280;2386;42.138;24.746;2023-09-08T06:54:04;100101.38;;;24.52;87.32
4745;BME280;2386;42.138;24.746;2023-09-08T06:56:29;100096.53;;;24.58;87.12
4745;BME280;2386;42.138;24.746;2023-09-08T06:58:55;100098.31;;;24.54;86.65
4745;BME280;2386;42.138;24.746;2023-09-08T07:01:23;100098.31;;;24.54;86.85
4745;BME280;2386;42.138;24.746;2023-09-08T07:03:48;100094.91;;;24.57;85.31
4745;BME280;2386;42.138;24.746;2023-09-08T07:06:13;100102.69;;;24.69;86.69
4745;BME280;2386;42.138;24.746;2023-09-08T07:08:39;100102.38;;;24.70;84.91
4745;BME280;2386;42.138;24.746;2023-09-08T07:11:04;100108.63;;;24.76;83.63
4745;BME280;2386;42.138;24.746;2023-09-08T07:13:30;100102.03;;;24.85;83.37
4745;BME280;2386;42.138;24.746;2023-09-08T07:15:55;100101.19;;;24.99;83.56
4745;BME280;2386;42.138;24.746;2023-09-08T07:18:21;100104.84;;;25.08;82.71
4745;BME280;2386;42.138;24.746;2023-09-08T07:20:47;100104.22;;;25.11;81.42
4745;BME280;2386;42.138;24.746;2023-09-08T07:23:13;100103.03;;;25.34;81.56
4745;BME280;2386;42.138;24.746;2023-09-08T07:25:39;100104.41;;;25.45;78.81
4745;BME280;2386;42.138;24.746;2023-09-08T07:28:04;100104.41;;;25.45;75.54
4745;BME280;2386;42.138;24.746;2023-09-08T07:30:31;100108.06;;;25.54;78.34
4745;BME280;2386;42.138;24.746;2023-09-08T07:32:57;100109.19;;;25.53;80.06
4745;BME280;2386;42.138;24.746;2023-09-08T07:35:23;100101.56;;;25.59;78.92
4745;BME280;2386;42.138;24.746;2023-09-08T07:37:49;100087.72;;;25.68;80.48
4745;BME280;2386;42.138;24.746;2023-09-08T07:40:15;100092.66;;;25.71;80.89
4745;BME280;2386;42.138;24.746;2023-09-08T07:42:40;100091.19;;;25.73;80.23
4745;BME280;2386;42.138;24.746;2023-09-08T07:45:06;100090.13;;;25.61;68.70
4745;BME280;2386;42.138;24.746;2023-09-08T07:47:32;100086.59;;;25.46;65.00
4745;BME280;2386;42.138;24.746;2023-09-08T07:50:20;100086.47;;;25.51;67.54
4745;BME280;2386;42.138;24.746;2023-09-08T07:52:47;100091.75;;;25.62;72.18
4745;BME280;2386;42.138;24.746;2023-09-08T07:55:12;100084.31;;;25.71;72.99
4745;BME280;2386;42.138;24.746;2023-09-08T07:57:38;100083.34;;;25.75;66.82
4745;BME280;2386;42.138;24.746;2023-09-08T08:00:03;100079.00;;;25.92;73.04
4745;BME280;2386;42.138;24.746;2023-09-08T08:02:29;100080.66;;;26.01;63.92
4745;BME280;2386;42.138;24.746;2023-09-08T08:04:56;100075.78;;;26.15;63.21
4745;BME280;2386;42.138;24.746;2023-09-08T08:07:22;100080.84;;;26.13;65.01
4745;BME280;2386;42.138;24.746;2023-09-08T08:09:47;100080.56;;;26.24;62.56
4745;BME280;2386;42.138;24.746;2023-09-08T08:12:13;100069.16;;;26.34;63.89
4745;BME280;2386;42.138;24.746;2023-09-08T08:14:38;100070.31;;;26.50;66.78
4745;BME280;2386;42.138;24.746;2023-09-08T08:17:04;100068.22;;;26.64;65.36
4745;BME280;2386;42.138;24.746;2023-09-08T08:19:30;100072.94;;;26.81;63.95
4745;BME280;2386;42.138;24.746;2023-09-08T08:21:55;100074.25;;;26.92;61.95
4745;BME280;2386;42.138;24.746;2023-09-08T08:24:22;100068.34;;;26.94;56.81
4745;BME280;2386;42.138;24.746;2023-09-08T08:26:48;100070.66;;;26.66;53.76
4745;BME280;2386;42.138;24.746;2023-09-08T08:29:13;100069.03;;;26.65;53.84
4745;BME280;2386;42.138;24.746;2023-09-08T08:31:38;100068.34;;;26.76;54.89
4745;BME280;2386;42.138;24.746;2023-09-08T08:34:04;100073.91;;;26.76;55.33
4745;BME280;2386;42.138;24.746;2023-09-08T08:36:30;100066.72;;;26.84;52.17
4745;BME280;2386;42.138;24.746;2023-09-08T08:38:55;100061.81;;;26.98;52.17
4745;BME280;2386;42.138;24.746;2023-09-08T08:41:21;100065.09;;;27.09;57.13
4745;BME280;2386;42.138;24.746;2023-09-08T08:43:47;100068.19;;;27.16;53.40
4745;BME280;2386;42.138;24.746;2023-09-08T08:46:13;100057.03;;;27.16;52.66
4745;BME280;2386;42.138;24.746;2023-09-08T08:48:40;100056.03;;;27.29;52.12
4745;BME280;2386;42.138;24.746;2023-09-08T08:51:05;100056.44;;;27.48;53.23
4745;BME280;2386;42.138;24.746;2023-09-08T08:53:33;100054.44;;;27.58;51.70
4745;BME280;2386;42.138;24.746;2023-09-08T08:55:59;100061.50;;;27.64;51.65
4745;BME280;2386;42.138;24.746;2023-09-08T08:58:26;100065.25;;;27.68;50.22
4745;BME280;2386;42.138;24.746;2023-09-08T09:00:53;100053.78;;;27.69;49.97
4745;BME280;2386;42.138;24.746;2023-09-08T09:03:21;100058.53;;;27.69;48.70
4745;BME280;2386;42.138;24.746;2023-09-08T09:05:48;100050.69;;;27.54;47.53
4745;BME280;2386;42.138;24.746;2023-09-08T09:08:14;100050.50;;;27.67;47.74
4745;BME280;2386;42.138;24.746;2023-09-08T09:10:40;100049.69;;;27.67;47.76
4745;BME280;2386;42.138;24.746;2023-09-08T09:13:05;100045.91;;;27.71;47.55
4745;BME280;2386;42.138;24.746;2023-09-08T09:15:31;100048.34;;;27.73;47.42
4745;BME280;2386;42.138;24.746;2023-09-08T09:18:04;100042.00;;;27.64;46.17
4745;BME280;2386;42.138;24.746;2023-09-08T09:20:29;100050.03;;;27.57;45.16
4745;BME280;2386;42.138;24.746;2023-09-08T09:22:55;100054.34;;;27.45;45.89
4745;BME280;2386;42.138;24.746;2023-09-08T09:25:22;100044.53;;;27.39;47.30
4745;BME280;2386;42.138;24.746;2023-09-08T09:27:54;100047.00;;;27.32;47.36
4745;BME280;2386;42.138;24.746;2023-09-08T09:30:22;100042.41;;;27.36;47.41
4745;BME280;2386;42.138;24.746;2023-09-08T09:32:48;100036.84;;;27.36;45.72
4745;BME280;2386;42.138;24.746;2023-09-08T09:35:15;100029.81;;;27.30;45.18
4745;BME280;2386;42.138;24.746;2023-09-08T09:37:42;100029.78;;;27.39;45.23
4745;BME280;2386;42.138;24.746;2023-09-08T09:47:52;100022.47;;;27.55;45.61
4745;BME280;2386;42.138;24.746;2023-09-08T10:05:49;100004.56;;;27.73;45.42
4745;BME280;2386;42.138;24.746;2023-09-08T10:08:15;99989.59;;;27.78;44.40
4745;BME280;2386;42.138;24.746;2023-09-08T10:10:41;100001.72;;;27.82;44.31
4745;BME280;2386;42.138;24.746;2023-09-08T10:13:12;99997.81;;;27.74;43.68
4745;BME280;2386;42.138;24.746;2023-09-08T10:15:38;99980.44;;;27.77;44.59
4745;BME280;2386;42.138;24.746;2023-09-08T10:18:05;99995.00;;;27.83;44.55
4745;BME280;2386;42.138;24.746;2023-09-08T10:20:33;99986.97;;;27.81;43.39
4745;BME280;2386;42.138;24.746;2023-09-08T10:23:07;99979.75;;;27.80;44.26
4745;BME280;2386;42.138;24.746;2023-09-08T10:25:42;99982.69;;;27.84;43.86
4745;BME280;2386;42.138;24.746;2023-09-08T10:28:09;99977.09;;;27.84;44.37
4745;BME280;2386;42.138;24.746;2023-09-08T10:30:35;99964.81;;;27.85;43.44
4745;BME280;2386;42.138;24.746;2023-09-08T10:33:01;99970.66;;;27.92;42.74
4745;BME280;2386;42.138;24.746;2023-09-08T10:35:28;99964.06;;;27.97;43.31
4745;BME280;2386;42.138;24.746;2023-09-08T10:38:22;99960.06;;;28.06;44.03
4745;BME280;2386;42.138;24.746;2023-09-08T10:40:52;99956.19;;;28.20;43.92
4745;BME280;2386;42.138;24.746;2023-09-08T10:43:18;99954.56;;;28.19;42.44
4745;BME280;2386;42.138;24.746;2023-09-08T10:45:45;99958.91;;;28.07;41.80
4745;BME280;2386;42.138;24.746;2023-09-08T10:48:11;99962.38;;;28.04;41.67
4745;BME280;2386;42.138;24.746;2023-09-08T10:50:41;99958.22;;;28.10;44.33
4745;BME280;2386;42.138;24.746;2023-09-08T10:53:14;99959.50;;;28.22;41.44
4745;BME280;2386;42.138;24.746;2023-09-08T10:55:40;99956.19;;;28.20;41.30
4745;BME280;2386;42.138;24.746;2023-09-08T10:58:09;99946.25;;;28.31;42.32
4745;BME280;2386;42.138;24.746;2023-09-08T11:00:51;99939.31;;;28.37;40.88
4745;BME280;2386;42.138;24.746;2023-09-08T11:06:04;99936.16;;;28.59;42.84
4745;BME280;2386;42.138;24.746;2023-09-08T11:08:30;99937.31;;;28.58;43.46
4745;BME280;2386;42.138;24.746;2023-09-08T11:10:56;99928.94;;;28.58;44.82
4745;BME280;2386;42.138;24.746;2023-09-08T11:13:22;99918.19;;;28.48;44.09
4745;BME280;2386;42.138;24.746;2023-09-08T11:15:47;99930.91;;;28.58;42.78
4745;BME280;2386;42.138;24.746;2023-09-08T11:18:15;99928.25;;;28.61;40.54
4745;BME280;2386;42.138;24.746;2023-09-08T11:20:41;99923.13;;;28.63;40.31
4745;BME280;2386;42.138;24.746;2023-09-08T11:23:06;99919.53;;;28.63;39.96
4745;BME280;2386;42.138;24.746;2023-09-08T11:25:32;99916.88;;;28.66;40.73
4745;BME280;2386;42.138;24.746;2023-09-08T11:27:58;99916.88;;;28.66;39.67
4745;BME280;2386;42.138;24.746;2023-09-08T11:30:25;99922.00;;;28.76;40.35
4745;BME280;2386;42.138;24.746;2023-09-08T11:32:50;99910.63;;;28.82;39.32
4745;BME280;2386;42.138;24.746;2023-09-08T11:35:16;99898.44;;;28.86;39.02
4745;BME280;2386;42.138;24.746;2023-09-08T11:37:46;99903.69;;;28.88;39.79
4745;BME280;2386;42.138;24.746;2023-09-08T11:40:11;99901.16;;;28.95;40.53
4745;BME280;2386;42.138;24.746;2023-09-08T11:42:42;99900.31;;;29.06;40.21
4745;BME280;2386;42.138;24.746;2023-09-08T11:45:14;99902.06;;;29.11;40.85
4745;BME280;2386;42.138;24.746;2023-09-08T11:47:43;99883.31;;;29.11;38.37
4745;BME280;2386;42.138;24.746;2023-09-08T11:50:10;99884.72;;;29.18;37.97
4745;BME280;2386;42.138;24.746;2023-09-08T11:52:37;99875.66;;;29.21;38.75
4745;BME280;2386;42.138;24.746;2023-09-08T11:55:04;99872.97;;;29.24;38.83
4745;BME280;2386;42.138;24.746;2023-09-08T11:57:30;99882.19;;;29.49;39.54
4745;BME280;2386;42.138;24.746;2023-09-08T11:59:56;99876.13;;;29.59;38.66
4745;BME280;2386;42.138;24.746;2023-09-08T12:02:23;99859.94;;;29.65;38.12
4745;BME280;2386;42.138;24.746;2023-09-08T12:33:55;99833.81;;;31.71;33.63
4745;BME280;2386;42.138;24.746;2023-09-08T12:36:20;99838.28;;;33.74;31.39
4745;BME280;2386;42.138;24.746;2023-09-08T12:38:52;99830.97;;;35.65;28.55
4745;BME280;2386;42.138;24.746;2023-09-08T12:41:19;99848.34;;;37.29;27.01
4745;BME280;2386;42.138;24.746;2023-09-08T12:43:45;99845.94;;;37.09;26.66
4745;BME280;2386;42.138;24.746;2023-09-08T12:46:18;99834.50;;;36.42;28.07
4745;BME280;2386;42.138;24.746;2023-09-08T12:48:44;99836.94;;;35.53;29.60
4745;BME280;2386;42.138;24.746;2023-09-08T13:29:05;99821.56;;;30.05;36.17
4745;BME280;2386;42.138;24.746;2023-09-08T13:36:39;99819.50;;;30.02;34.91
4745;BME280;2386;42.138;24.746;2023-09-08T13:39:05;99813.19;;;29.93;35.60
4745;BME280;2386;42.138;24.746;2023-09-08T13:44:16;99814.19;;;29.73;35.88
4745;BME280;2386;42.138;24.746;2023-09-08T13:46:42;99817.53;;;29.63;36.49
4745;BME280;2386;42.138;24.746;2023-09-08T13:49:07;99819.16;;;29.52;37.75
4745;BME280;2386;42.138;24.746;2023-09-08T13:51:32;99810.56;;;29.45;37.27
4745;BME280;2386;42.138;24.746;2023-09-08T13:53:59;99808.94;;;29.43;37.22
4745;BME280;2386;42.138;24.746;2023-09-08T13:56:24;99812.53;;;29.44;38.77
4745;BME280;2386;42.138;24.746;2023-09-08T13:58:49;99802.19;;;29.45;36.93
4745;BME280;2386;42.138;24.746;2023-09-08T14:01:15;99801.13;;;29.49;35.73
4745;BME280;2386;42.138;24.746;2023-09-08T14:03:40;99795.16;;;29.63;36.07
4745;BME280;2386;42.138;24.746;2023-09-08T14:06:06;99797.16;;;29.78;37.44
4745;BME280;2386;42.138;24.746;2023-09-08T14:08:31;99801.56;;;29.91;36.68
4745;BME280;2386;42.138;24.746;2023-09-08T14:10:56;99798.63;;;30.00;36.18
4745;BME280;2386;42.138;24.746;2023-09-08T14:13:22;99800.66;;;30.15;36.45
4745;BME280;2386;42.138;24.746;2023-09-08T14:15:47;99805.84;;;30.29;38.13
4745;BME280;2386;42.138;24.746;2023-09-08T14:18:13;99797.28;;;30.37;36.72
4745;BME280;2386;42.138;24.746;2023-09-08T14:20:40;99790.16;;;30.40;36.37
4745;BME280;2386;42.138;24.746;2023-09-08T14:23:05;99795.03;;;30.43;35.49
4745;BME280;2386;42.138;24.746;2023-09-08T14:25:33;99784.09;;;30.38;36.32
4745;BME280;2386;42.138;24.746;2023-09-08T14:27:58;99776.22;;;30.28;37.36
4745;BME280;2386;42.138;24.746;2023-09-08T14:30:24;99778.72;;;30.17;36.23
4745;BME280;2386;42.138;24.746;2023-09-08T14:32:52;99781.00;;;29.99;34.93
4745;BME280;2386;42.138;24.746;2023-09-08T14:35:18;99774.94;;;29.97;35.13
4745;BME280;2386;42.138;24.746;2023-09-08T14:37:47;99750.63;;;29.86;37.15
4745;BME280;2386;42.138;24.746;2023-09-08T14:40:31;99770.41;;;29.93;37.59
4745;BME280;2386;42.138;24.746;2023-09-08T14:42:57;99760.00;;;29.77;38.11
4745;BME280;2386;42.138;24.746;2023-09-08T14:45:22;99775.50;;;29.75;39.20
4745;BME280;2386;42.138;24.746;2023-09-08T14:47:51;99753.25;;;29.51;38.48
4745;BME280;2386;42.138;24.746;2023-09-08T14:50:16;99764.06;;;29.52;38.55
4745;BME280;2386;42.138;24.746;2023-09-08T14:52:42;99765.69;;;29.41;38.62
4745;BME280;2386;42.138;24.746;2023-09-08T14:55:07;99754.91;;;29.27;39.75